Cambridge / Reid's Field

SPECI CYKF TAF CYKF
2 °C
°C
-
°C
9m
Age
16:58:21
LT
15:58
UTC
0 ft

1,000

2,000

3,000

4,000

5,000

BKN 3,400
OVC 4,300
VFR
<?= Yii::t('app', 'Wind direction') ?> <?= Yii::t('app', 'of'); ?>
200°
17:40
Sunset
75%
Humidity
Wind shear
Closed/Snow
RWY visual range
RWY condition
Vert. visibility
Min. visibility
CAVOK
Trend
Correction
Special report
29.86 inHg
QNH
SPECI CYKF 071549Z AUTO 20012KT 9SM BKN034 OVC043 02/M02 A2986 RMK PRESRR SLP124
Overcast
8 kt
8 kt
10:00
VFR
15 kt
11:00
MVFR
18 kt
12:00
MVFR
18 kt
13:00
MVFR
20 kt
14:00
MVFR
20 kt
15:00
IFR
20 kt
16:00
IFR
20 kt
9 mi
Visibility
3,400 ft
Ceiling
12 kt
Wind
metar-taf.com/CPE4

Metar-Taf.com

Visual decoder

We and third parties follow your internet behavior on our website with cookies. If you continue, we assume you agree with our cookie policy.